Time;durP1;ratioP1;P1;durP2;ratioP2;P2;SDS_P1;SDS_P2;PMS_P1;PMS_P2;Temp;Humidity;BMP_temperature;BMP_pressure;BME280_temperature;BME280_humidity;BME280_pressure;Samples;Min_cycle;Max_cycle;Signal;HPM_P1;HPM_P2
2023/06/27 00:01:06;;;;;;;7.63;2.80;;;17.10;99.90;;;;;;5017805;28;20056;-77
2023/06/27 00:03:33;;;;;;;8.13;3.00;;;17.00;99.90;;;;;;5034320;28;20485;-77
2023/06/27 00:06:04;;;;;;;8.57;3.10;;;17.00;99.90;;;;;;5033957;28;20045;-77
2023/06/27 00:08:33;;;;;;;6.53;2.60;;;17.00;99.90;;;;;;5018432;28;20057;-77
2023/06/27 00:10:59;;;;;;;6.70;2.60;;;16.90;99.90;;;;;;5035204;28;20053;-77
2023/06/27 00:13:25;;;;;;;6.70;2.90;;;16.90;99.90;;;;;;5017891;28;20045;-77
2023/06/27 00:15:54;;;;;;;8.13;2.90;;;16.80;99.90;;;;;;5035063;28;20045;-78
2023/06/27 00:18:21;;;;;;;8.20;2.40;;;16.80;99.90;;;;;;5033937;28;20474;-78
2023/06/27 00:20:48;;;;;;;8.10;2.50;;;16.80;99.90;;;;;;5017893;28;20057;-77
2023/06/27 00:23:33;;;;;;;7.20;2.20;;;16.80;99.90;;;;;;5017200;28;20049;-77
2023/06/27 00:26:00;;;;;;;7.28;2.53;;;16.80;99.90;;;;;;5033855;28;20132;-78
2023/06/27 00:28:26;;;;;;;7.47;3.53;;;16.80;99.90;;;;;;5034026;28;20195;-77
2023/06/27 00:30:52;;;;;;;5.53;2.50;;;16.80;99.90;;;;;;5033404;28;20055;-80
2023/06/27 00:33:18;;;;;;;6.77;2.40;;;16.70;99.90;;;;;;5035286;28;20125;-77
2023/06/27 00:35:44;;;;;;;6.10;2.63;;;16.70;99.90;;;;;;5034013;28;20136;-77
2023/06/27 00:38:09;;;;;;;8.50;2.90;;;16.70;99.90;;;;;;5033627;28;20280;-77
2023/06/27 00:40:35;;;;;;;6.63;2.73;;;16.70;99.90;;;;;;5032581;28;20056;-77
2023/06/27 00:43:01;;;;;;;6.93;2.23;;;16.70;99.90;;;;;;5033184;28;20430;-78
2023/06/27 00:45:26;;;;;;;4.70;2.43;;;16.60;99.90;;;;;;5034590;28;20047;-77
2023/06/27 00:47:53;;;;;;;5.30;2.40;;;16.70;99.90;;;;;;5033622;28;20503;-77
2023/06/27 00:50:22;;;;;;;5.73;2.40;;;16.70;99.90;;;;;;5033347;28;20048;-77
2023/06/27 00:52:48;;;;;;;4.97;2.70;;;16.60;99.90;;;;;;5034613;28;20513;-77
2023/06/27 00:55:15;;;;;;;6.67;2.67;;;16.60;99.90;;;;;;5033328;28;20049;-77
2023/06/27 00:57:41;;;;;;;7.03;2.80;;;16.60;99.90;;;;;;5033401;28;20128;-77
2023/06/27 01:00:11;;;;;;;8.10;2.60;;;16.60;99.90;;;;;;5034042;28;20045;-77
2023/06/27 01:02:37;;;;;;;5.70;2.60;;;16.60;99.90;;;;;;5033705;28;20045;-77
2023/06/27 01:05:05;;;;;;;4.93;2.33;;;16.60;99.90;;;;;;5000415;28;20052;-77
2023/06/27 01:07:49;;;;;;;8.03;2.30;;;16.50;99.90;;;;;;5016650;28;20137;-77
2023/06/27 01:10:38;;;;;;;7.17;2.67;;;16.50;99.90;;;;;;5033984;28;20072;-77
2023/06/27 01:13:20;;;;;;;6.43;2.30;;;16.40;99.90;;;;;;5016671;28;20046;-77
2023/06/27 01:15:46;;;;;;;5.10;2.17;;;16.40;99.90;;;;;;5033132;28;20045;-77
2023/06/27 01:18:12;;;;;;;6.50;2.70;;;16.40;99.90;;;;;;5033917;28;20048;-77
2023/06/27 01:20:39;;;;;;;6.57;2.43;;;16.40;99.90;;;;;;5033163;28;20069;-77
2023/06/27 01:23:09;;;;;;;5.57;2.70;;;16.40;99.90;;;;;;5032354;28;20085;-77
2023/06/27 01:25:37;;;;;;;8.20;2.63;;;16.40;99.90;;;;;;5016659;28;20497;-77
2023/06/27 01:28:05;;;;;;;6.67;3.10;;;16.30;99.90;;;;;;5016525;28;20088;-77
2023/06/27 01:30:33;;;;;;;5.57;2.53;;;16.30;99.90;;;;;;5033880;28;20511;-77
2023/06/27 01:33:05;;;;;;;6.23;2.60;;;16.30;99.90;;;;;;5016337;28;20773;-80
2023/06/27 01:35:42;;;;;;;4.97;2.30;;;16.30;99.90;;;;;;5032717;28;20319;-77
2023/06/27 01:38:11;;;;;;;6.40;2.67;;;16.30;99.90;;;;;;5033687;28;20402;-77
2023/06/27 01:40:39;;;;;;;5.90;2.77;;;16.20;99.90;;;;;;5032501;28;20378;-77
2023/06/27 01:43:10;;;;;;;5.37;2.43;;;16.20;99.90;;;;;;5032071;28;20049;-77
2023/06/27 01:45:39;;;;;;;5.23;2.83;;;16.20;99.90;;;;;;5032435;28;20409;-77
2023/06/27 01:48:05;;;;;;;7.23;2.40;;;16.20;99.90;;;;;;5015802;28;20409;-77
2023/06/27 01:50:31;;;;;;;7.33;2.50;;;16.20;99.90;;;;;;4999615;28;20107;-77
2023/06/27 01:52:57;;;;;;;7.53;2.77;;;16.30;99.90;;;;;;5033445;28;20731;-77
2023/06/27 01:55:23;;;;;;;7.10;2.77;;;16.30;99.90;;;;;;5032078;28;20052;-77
2023/06/27 01:57:50;;;;;;;7.27;2.70;;;16.20;99.90;;;;;;5033605;28;20057;-78
2023/06/27 02:00:16;;;;;;;4.70;2.40;;;16.20;99.90;;;;;;5015681;28;20049;-78
2023/06/27 02:02:43;;;;;;;7.17;2.63;;;16.20;99.90;;;;;;5015442;28;20124;-78
2023/06/27 02:05:09;;;;;;;5.43;2.50;;;16.10;99.90;;;;;;5032153;28;20150;-78
2023/06/27 02:07:35;;;;;;;7.33;2.50;;;16.10;99.90;;;;;;5032051;28;20705;-77
2023/06/27 02:10:01;;;;;;;7.40;2.87;;;16.10;99.90;;;;;;5032109;28;20065;-77
2023/06/27 02:12:26;;;;;;;6.43;2.87;;;16.00;99.90;;;;;;5031659;28;20482;-77
2023/06/27 02:14:52;;;;;;;5.07;2.60;;;16.10;99.90;;;;;;5015229;28;20290;-77
2023/06/27 02:17:18;;;;;;;8.37;2.93;;;16.10;99.90;;;;;;5031723;28;20041;-77
2023/06/27 02:19:44;;;;;;;5.63;2.40;;;16.10;99.90;;;;;;5015784;28;20441;-77
2023/06/27 02:22:09;;;;;;;6.10;2.40;;;16.00;99.90;;;;;;5031604;28;20072;-78
2023/06/27 02:24:35;;;;;;;6.90;2.60;;;16.00;99.90;;;;;;5015729;28;20053;-78
2023/06/27 02:27:01;;;;;;;5.00;2.37;;;16.00;99.90;;;;;;5031645;28;20553;-77
2023/06/27 02:29:27;;;;;;;7.27;2.80;;;16.00;99.90;;;;;;5031555;28;20041;-78
2023/06/27 02:31:52;;;;;;;6.20;2.47;;;16.00;99.90;;;;;;5031437;28;20048;-78
2023/06/27 02:34:18;;;;;;;5.67;2.97;;;16.00;99.90;;;;;;5031489;28;20474;-78
2023/06/27 02:36:44;;;;;;;5.67;2.60;;;16.00;99.90;;;;;;5031663;28;20088;-78
2023/06/27 02:39:09;;;;;;;7.50;2.87;;;16.00;99.90;;;;;;5015261;28;20056;-78
2023/06/27 02:41:35;;;;;;;7.47;3.13;;;15.90;99.90;;;;;;5031704;28;20049;-78
2023/06/27 02:44:01;;;;;;;5.77;2.50;;;15.90;99.90;;;;;;5031569;28;20049;-77
2023/06/27 02:46:26;;;;;;;6.13;2.43;;;15.90;99.90;;;;;;5031244;28;20401;-78
2023/06/27 02:48:52;;;;;;;7.90;2.83;;;15.90;99.90;;;;;;5015344;28;20042;-77
2023/06/27 02:51:19;;;;;;;7.70;3.10;;;15.90;99.90;;;;;;4998799;28;20045;-77
2023/06/27 02:53:45;;;;;;;5.70;2.33;;;15.90;99.90;;;;;;5015398;28;20049;-77
2023/06/27 02:56:11;;;;;;;5.93;2.60;;;15.90;99.90;;;;;;5032292;28;20503;-78
2023/06/27 02:58:36;;;;;;;8.93;2.97;;;15.80;99.90;;;;;;5031454;28;20444;-78
2023/06/27 03:01:03;;;;;;;9.47;2.30;;;15.80;99.90;;;;;;5031110;28;20045;-78
2023/06/27 03:03:29;;;;;;;6.07;2.33;;;15.80;99.90;;;;;;5032183;28;20064;-78
2023/06/27 03:05:55;;;;;;;6.07;2.47;;;15.80;99.90;;;;;;5035661;28;20276;-77
2023/06/27 03:08:21;;;;;;;6.30;2.63;;;15.80;99.90;;;;;;5036192;28;20057;-77
2023/06/27 03:10:46;;;;;;;6.90;2.40;;;15.70;99.90;;;;;;5018758;28;20499;-78
2023/06/27 03:13:12;;;;;;;5.80;3.00;;;15.70;99.90;;;;;;5036216;28;20091;-78
2023/06/27 03:15:38;;;;;;;6.10;2.50;;;15.70;99.90;;;;;;5035373;28;20045;-78
2023/06/27 03:18:04;;;;;;;8.63;3.10;;;15.70;99.90;;;;;;5002453;28;20099;-78
2023/06/27 03:20:29;;;;;;;6.70;2.90;;;15.80;99.90;;;;;;5035201;28;20045;-78
2023/06/27 03:22:55;;;;;;;6.53;2.40;;;15.80;99.90;;;;;;5018848;28;20052;-77
2023/06/27 03:25:21;;;;;;;7.70;2.73;;;15.80;99.90;;;;;;5034748;28;20087;-78
2023/06/27 03:27:46;;;;;;;6.90;2.60;;;15.70;99.90;;;;;;5018679;28;20088;-77
2023/06/27 03:30:13;;;;;;;9.60;3.10;;;15.70;99.90;;;;;;5018357;28;20050;-79
2023/06/27 03:32:38;;;;;;;8.80;2.70;;;15.70;99.90;;;;;;5035544;28;20085;-78
2023/06/27 03:35:05;;;;;;;6.00;2.90;;;15.80;99.90;;;;;;5034897;28;20855;-78
2023/06/27 03:37:31;;;;;;;6.13;2.40;;;15.80;99.90;;;;;;5017736;28;20383;-78
2023/06/27 03:39:57;;;;;;;5.77;2.97;;;15.80;99.90;;;;;;5036056;28;20291;-78
2023/06/27 03:42:23;;;;;;;8.00;2.47;;;15.70;99.90;;;;;;5034309;28;20044;-77
2023/06/27 03:44:49;;;;;;;9.13;2.80;;;15.80;99.90;;;;;;5035743;28;20084;-78
2023/06/27 03:47:16;;;;;;;7.73;2.97;;;15.80;99.90;;;;;;5018336;28;20324;-78
2023/06/27 03:49:41;;;;;;;5.93;2.77;;;15.70;99.90;;;;;;5035878;28;20056;-78
2023/06/27 03:52:07;;;;;;;6.30;2.70;;;15.80;99.90;;;;;;5035794;28;20341;-78
2023/06/27 03:54:33;;;;;;;4.93;2.40;;;15.80;99.90;;;;;;5018092;28;20128;-78
2023/06/27 03:56:59;;;;;;;7.80;2.70;;;15.80;99.90;;;;;;5002009;28;20049;-78
2023/06/27 03:59:25;;;;;;;6.03;2.70;;;15.80;99.90;;;;;;5033996;28;20042;-78
2023/06/27 04:01:50;;;;;;;5.60;3.10;;;15.80;99.90;;;;;;5034700;28;20049;-78
2023/06/27 04:04:16;;;;;;;7.93;3.37;;;15.90;99.90;;;;;;5018031;28;20041;-78
2023/06/27 04:06:42;;;;;;;10.83;3.07;;;15.80;99.90;;;;;;5017987;28;20057;-77
2023/06/27 04:09:07;;;;;;;6.87;2.90;;;15.80;99.90;;;;;;5035531;28;20060;-78
2023/06/27 04:11:33;;;;;;;10.23;2.87;;;15.90;99.90;;;;;;5035035;28;20366;-78
2023/06/27 04:13:59;;;;;;;8.87;3.10;;;15.80;99.90;;;;;;5017519;28;20103;-78
2023/06/27 04:16:26;;;;;;;8.03;3.30;;;15.80;99.90;;;;;;5017808;28;20380;-78
2023/06/27 04:18:52;;;;;;;6.40;3.17;;;15.90;99.90;;;;;;5034357;28;20124;-78
2023/06/27 04:21:18;;;;;;;5.93;3.10;;;15.90;99.90;;;;;;5017289;28;20434;-80
2023/06/27 04:23:44;;;;;;;8.33;2.70;;;15.90;99.90;;;;;;5035470;28;20369;-78
2023/06/27 04:26:15;;;;;;;8.10;3.20;;;15.90;99.90;;;;;;5034962;28;20284;-78
2023/06/27 04:28:43;;;;;;;5.73;2.60;;;16.00;99.90;;;;;;5033740;28;20054;-78
2023/06/27 04:31:09;;;;;;;7.07;2.90;;;16.00;99.90;;;;;;5033739;28;20292;-78
2023/06/27 04:33:39;;;;;;;11.17;3.33;;;16.00;99.90;;;;;;5017361;28;20802;-78
2023/06/27 04:36:06;;;;;;;6.13;2.73;;;16.10;99.90;;;;;;5033835;28;20288;-78
2023/06/27 04:38:37;;;;;;;8.47;3.13;;;16.20;99.90;;;;;;5017097;28;20295;-78
2023/06/27 04:41:07;;;;;;;6.77;2.70;;;16.20;99.90;;;;;;5017431;28;20295;-79
2023/06/27 04:43:34;;;;;;;7.43;2.90;;;16.30;99.90;;;;;;5033650;28;20049;-78
2023/06/27 04:46:00;;;;;;;8.40;2.90;;;16.40;99.90;;;;;;5033854;28;20052;-78
2023/06/27 04:48:26;;;;;;;7.67;2.60;;;16.50;99.90;;;;;;5017040;28;20375;-79
2023/06/27 04:50:53;;;;;;;4.53;2.73;;;16.60;99.90;;;;;;5033729;28;20493;-78
2023/06/27 04:53:23;;;;;;;8.80;3.00;;;16.80;99.90;;;;;;5033584;28;20041;-79
2023/06/27 04:55:50;;;;;;;8.07;2.80;;;16.80;99.90;;;;;;5017127;28;20456;-78
2023/06/27 04:58:16;;;;;;;10.13;3.40;;;17.00;99.90;;;;;;5034724;28;20102;-78
2023/06/27 05:00:44;;;;;;;7.53;2.93;;;17.10;99.90;;;;;;5034352;28;20050;-78
2023/06/27 05:03:10;;;;;;;5.77;2.30;;;17.20;99.90;;;;;;5000731;28;20164;-78
2023/06/27 05:05:36;;;;;;;8.07;2.97;;;17.30;99.90;;;;;;5034277;28;20123;-78
2023/06/27 05:08:03;;;;;;;7.03;2.73;;;17.40;99.90;;;;;;5032939;28;20057;-78
2023/06/27 05:10:33;;;;;;;8.53;2.80;;;17.60;99.90;;;;;;5033266;28;20136;-78
2023/06/27 05:12:59;;;;;;;8.70;2.77;;;17.70;99.90;;;;;;5033421;28;20053;-78
2023/06/27 05:15:26;;;;;;;5.40;2.20;;;17.90;99.90;;;;;;5016535;28;20053;-79
2023/06/27 05:17:54;;;;;;;6.40;2.30;;;18.00;99.90;;;;;;5033115;28;20045;-78
2023/06/27 05:20:20;;;;;;;7.77;2.60;;;18.10;99.90;;;;;;5033350;28;20056;-78
2023/06/27 05:22:46;;;;;;;7.43;2.30;;;18.30;99.90;;;;;;5033697;28;20046;-78
2023/06/27 05:25:12;;;;;;;8.40;2.70;;;18.40;99.90;;;;;;5033227;28;20479;-78
2023/06/27 05:27:37;;;;;;;5.87;2.33;;;18.60;99.90;;;;;;5015729;28;20060;-78
2023/06/27 05:30:04;;;;;;;7.23;2.37;;;18.70;99.90;;;;;;5016835;28;20057;-78
2023/06/27 05:32:29;;;;;;;7.50;2.27;;;18.80;99.90;;;;;;5033711;28;20041;-78
2023/06/27 05:34:55;;;;;;;6.17;2.30;;;19.00;99.90;;;;;;5032725;28;20044;-77
2023/06/27 05:37:21;;;;;;;7.93;2.40;;;19.10;99.90;;;;;;5032450;28;20049;-78
2023/06/27 05:39:46;;;;;;;7.27;2.10;;;19.30;99.90;;;;;;5016112;28;20053;-78
2023/06/27 05:42:12;;;;;;;8.40;2.20;;;19.40;99.90;;;;;;5032621;28;20193;-77
2023/06/27 05:44:38;;;;;;;7.40;2.00;;;19.60;99.90;;;;;;4983521;28;20045;-77
2023/06/27 05:47:05;;;;;;;9.07;2.03;;;19.80;99.90;;;;;;5032789;28;20049;-77
2023/06/27 05:49:30;;;;;;;4.20;1.63;;;20.00;99.90;;;;;;5033390;28;20115;-78
2023/06/27 05:51:56;;;;;;;8.17;1.77;;;20.30;99.90;;;;;;5033475;28;20124;-78
2023/06/27 05:54:22;;;;;;;5.63;1.63;;;21.30;99.90;;;;;;5016307;28;20535;-78
2023/06/27 05:56:48;;;;;;;7.87;2.13;;;22.80;99.90;;;;;;5033159;28;20053;-78
2023/06/27 05:59:14;;;;;;;6.00;2.10;;;24.10;99.90;;;;;;5015909;28;20477;-77
2023/06/27 06:01:40;;;;;;;7.33;2.10;;;25.10;99.90;;;;;;5015694;28;20081;-78
2023/06/27 06:04:06;;;;;;;6.17;1.80;;;25.90;97.90;;;;;;5033273;28;20051;-78
2023/06/27 06:06:38;;;;;;;5.77;2.07;;;26.60;93.50;;;;;;5032959;28;20080;-78
2023/06/27 06:09:07;;;;;;;5.10;1.50;;;27.30;85.10;;;;;;5015540;28;20088;-77
2023/06/27 06:11:36;;;;;;;5.17;1.60;;;28.10;73.20;;;;;;5015579;28;20056;-77
2023/06/27 06:14:03;;;;;;;4.30;1.80;;;28.60;67.70;;;;;;5032095;28;20041;-78
2023/06/27 06:16:33;;;;;;;7.10;2.07;;;29.30;61.60;;;;;;5033051;28;20555;-78
2023/06/27 06:19:03;;;;;;;5.33;1.77;;;30.00;55.30;;;;;;4999555;28;20413;-77
2023/06/27 06:21:30;;;;;;;5.10;1.63;;;30.70;52.30;;;;;;5031886;28;20083;-77
2023/06/27 06:23:56;;;;;;;5.23;1.87;;;31.10;51.90;;;;;;5015246;28;20531;-77
2023/06/27 06:26:22;;;;;;;6.75;1.65;;;31.60;50.30;;;;;;5032254;28;20128;-75
2023/06/27 06:28:48;;;;;;;5.60;2.00;;;32.00;48.70;;;;;;5031734;28;20464;-75
2023/06/27 06:31:18;;;;;;;5.25;1.60;;;32.40;47.20;;;;;;5032845;28;20068;-75
2023/06/27 06:33:44;;;;;;;4.35;1.90;;;32.80;46.20;;;;;;5031424;28;20084;-75
2023/06/27 06:36:11;;;;;;;5.97;2.28;;;33.10;44.90;;;;;;5032200;28;20084;-75
2023/06/27 06:38:36;;;;;;;5.10;1.63;;;33.30;44.20;;;;;;5031766;28;20037;-75
2023/06/27 06:41:03;;;;;;;6.47;2.47;;;33.50;43.60;;;;;;5031718;28;20054;-75
2023/06/27 06:43:28;;;;;;;5.35;1.90;;;33.60;42.70;;;;;;4998684;28;20045;-76
2023/06/27 06:45:54;;;;;;;5.47;2.00;;;33.80;42.30;;;;;;5031387;28;20056;-75
2023/06/27 06:48:20;;;;;;;4.95;1.90;;;33.80;41.30;;;;;;5032578;28;20052;-75
2023/06/27 06:50:47;;;;;;;7.32;2.45;;;33.20;40.80;;;;;;5032507;28;20050;-76
2023/06/27 06:53:12;;;;;;;5.60;1.75;;;32.80;40.80;;;;;;5031686;28;20049;-77
2023/06/27 06:55:38;;;;;;;7.05;1.95;;;32.50;41.30;;;;;;5032293;28;20485;-76
2023/06/27 06:58:04;;;;;;;7.20;2.08;;;32.60;41.40;;;;;;5031633;28;20053;-76
2023/06/27 07:00:30;;;;;;;6.47;1.80;;;32.30;41.30;;;;;;5031428;28;20045;-76
2023/06/27 07:02:57;;;;;;;5.13;1.88;;;31.50;41.70;;;;;;5031008;28;20059;-76
2023/06/27 07:05:23;;;;;;;5.70;1.75;;;31.30;41.80;;;;;;5031627;28;20052;-76
2023/06/27 07:07:49;;;;;;;4.95;1.75;;;31.10;41.80;;;;;;5032033;28;20057;-77
2023/06/27 07:10:15;;;;;;;8.90;1.80;;;31.20;41.50;;;;;;5032522;28;20056;-77
2023/06/27 07:12:41;;;;;;;6.15;2.00;;;31.00;41.10;;;;;;5032162;28;20124;-77
2023/06/27 07:15:07;;;;;;;6.15;1.40;;;30.40;41.60;;;;;;5031240;28;20104;-77
2023/06/27 07:17:33;;;;;;;5.78;1.77;;;30.10;41.90;;;;;;5032270;28;20129;-78
2023/06/27 07:20:01;;;;;;;6.70;1.70;;;29.70;42.20;;;;;;5030978;28;20130;-83
2023/06/27 07:22:26;;;;;;;6.45;1.88;;;29.50;42.80;;;;;;5030916;28;20084;-77
2023/06/27 07:24:52;;;;;;;6.68;1.92;;;29.70;43.30;;;;;;5032146;28;20089;-78
2023/06/27 07:27:18;;;;;;;9.20;1.73;;;29.50;42.70;;;;;;5030988;28;20373;-78
2023/06/27 07:29:44;;;;;;;6.25;1.70;;;28.80;42.80;;;;;;5031915;28;20054;-79
2023/06/27 07:32:13;;;;;;;5.32;1.60;;;28.10;43.30;;;;;;5031125;28;20091;-77
2023/06/27 07:34:39;;;;;;;5.55;1.60;;;27.40;44.40;;;;;;5014814;28;20107;-79
2023/06/27 07:37:06;;;;;;;7.40;1.85;;;27.00;45.30;;;;;;5031371;28;20053;-78
2023/06/27 07:39:32;;;;;;;4.55;1.67;;;26.90;45.80;;;;;;5032224;28;20493;-79
2023/06/27 07:41:58;;;;;;;5.95;1.48;;;26.80;46.20;;;;;;5030616;28;20048;-80
2023/06/27 07:44:24;;;;;;;5.90;1.75;;;26.80;46.50;;;;;;5030684;28;20390;-79
2023/06/27 07:46:50;;;;;;;5.75;1.85;;;26.70;46.70;;;;;;5030682;28;20485;-80
2023/06/27 07:49:16;;;;;;;6.82;2.20;;;26.70;47.00;;;;;;5032026;28;20133;-80
2023/06/27 07:51:42;;;;;;;5.22;1.75;;;26.50;47.30;;;;;;5034705;28;20434;-82
2023/06/27 07:54:09;;;;;;;7.90;1.70;;;26.40;47.60;;;;;;5034880;28;20092;-79
2023/06/27 07:56:35;;;;;;;6.65;2.13;;;26.20;48.30;;;;;;5034462;28;20049;-79
2023/06/27 07:59:03;;;;;;;4.37;1.43;;;26.30;49.00;;;;;;5034991;28;20060;-79
2023/06/27 08:01:29;;;;;;;7.40;2.05;;;26.40;49.50;;;;;;5018337;28;20054;-80
2023/06/27 08:03:54;;;;;;;6.40;1.63;;;26.60;49.80;;;;;;5035572;28;20076;-79
2023/06/27 08:06:20;;;;;;;4.20;1.53;;;26.80;50.00;;;;;;5018113;28;20520;-80
2023/06/27 08:08:46;;;;;;;6.20;1.98;;;27.10;49.40;;;;;;5035199;28;20111;-77
2023/06/27 08:11:11;;;;;;;4.88;1.50;;;27.30;49.10;;;;;;5034271;28;20048;-77
2023/06/27 08:13:41;;;;;;;6.82;1.65;;;27.50;48.80;;;;;;5034155;28;20053;-80
2023/06/27 08:16:08;;;;;;;8.40;1.98;;;27.60;48.10;;;;;;5033760;28;20054;-79
2023/06/27 08:18:34;;;;;;;5.70;1.73;;;28.00;48.20;;;;;;5034528;28;20049;-78
2023/06/27 08:21:00;;;;;;;5.88;2.05;;;28.60;48.00;;;;;;5034031;28;20060;-79
2023/06/27 08:23:27;;;;;;;5.18;1.70;;;29.20;47.20;;;;;;5033929;28;20128;-82
2023/06/27 08:25:54;;;;;;;9.23;2.00;;;29.70;46.30;;;;;;5017416;28;20084;-78
2023/06/27 08:28:20;;;;;;;6.55;1.92;;;30.00;45.70;;;;;;5017503;28;20109;-77
2023/06/27 08:30:46;;;;;;;6.15;2.00;;;30.20;44.90;;;;;;5034273;28;20081;-78
2023/06/27 08:33:14;;;;;;;6.20;1.80;;;30.20;44.40;;;;;;5017828;28;20045;-78
2023/06/27 08:35:43;;;;;;;7.72;1.70;;;30.10;44.50;;;;;;5017344;28;20501;-77
2023/06/27 08:38:10;;;;;;;5.38;1.75;;;30.20;44.50;;;;;;4983425;28;20057;-76
2023/06/27 08:40:36;;;;;;;5.65;1.60;;;29.80;44.20;;;;;;5033783;28;20102;-76
2023/06/27 08:43:09;;;;;;;5.93;1.70;;;29.20;44.30;;;;;;5033458;28;20132;-80
2023/06/27 08:45:52;;;;;;;6.25;1.70;;;28.50;45.70;;;;;;5035048;28;20084;-79
2023/06/27 08:48:18;;;;;;;4.47;2.03;;;28.00;46.10;;;;;;5033923;28;20053;-79
2023/06/27 08:50:44;;;;;;;4.75;1.73;;;27.80;46.30;;;;;;5017411;28;20481;-78
2023/06/27 08:53:14;;;;;;;5.43;1.65;;;27.50;45.80;;;;;;5033030;28;20052;-74
2023/06/27 08:55:54;;;;;;;7.13;1.95;;;27.30;46.00;;;;;;5033359;28;20481;-74
2023/06/27 08:58:26;;;;;;;6.60;1.92;;;27.00;46.90;;;;;;5034577;28;20061;-73
2023/06/27 09:00:53;;;;;;;5.25;1.80;;;26.80;46.90;;;;;;5033238;28;20084;-72
2023/06/27 09:03:20;;;;;;;6.40;1.90;;;26.50;47.30;;;;;;5033876;28;20045;-75
2023/06/27 09:05:50;;;;;;;3.40;1.33;;;26.30;47.90;;;;;;5033914;28;20046;-71
2023/06/27 09:08:17;;;;;;;5.40;1.77;;;26.10;48.10;;;;;;5033822;28;20069;-72
2023/06/27 09:10:44;;;;;;;5.70;1.77;;;26.00;48.50;;;;;;5033028;28;20049;-74
2023/06/27 09:13:10;;;;;;;4.05;1.40;;;26.00;48.80;;;;;;5033658;28;20049;-73
2023/06/27 09:15:36;;;;;;;6.18;1.58;;;25.90;49.00;;;;;;5033825;28;20099;-75
2023/06/27 09:18:02;;;;;;;4.00;1.27;;;25.80;49.00;;;;;;5033377;28;20052;-76
2023/06/27 09:20:28;;;;;;;6.50;1.73;;;25.80;49.50;;;;;;5033562;28;20037;-78
2023/06/27 09:22:57;;;;;;;4.93;1.43;;;25.90;49.70;;;;;;5034053;28;20128;-73
2023/06/27 09:25:24;;;;;;;5.63;1.83;;;25.90;49.90;;;;;;5033613;28;20045;-74
2023/06/27 09:27:50;;;;;;;7.20;2.10;;;25.80;50.40;;;;;;5047959;28;20127;-76
2023/06/27 09:30:17;;;;;;;6.53;1.80;;;25.70;50.80;;;;;;5032610;28;20132;-75
2023/06/27 09:32:56;;;;;;;5.03;1.70;;;25.70;51.30;;;;;;5049305;28;20124;-72
2023/06/27 09:35:24;;;;;;;6.17;1.90;;;25.70;51.80;;;;;;5034020;28;20505;-72
2023/06/27 09:38:02;;;;;;;7.23;2.20;;;25.70;51.90;;;;;;5049375;28;20092;-71
2023/06/27 09:40:28;;;;;;;6.17;1.93;;;25.60;51.50;;;;;;5033757;28;20049;-70
2023/06/27 09:42:55;;;;;;;6.03;1.70;;;25.60;52.00;;;;;;5033376;28;20048;-72
2023/06/27 09:45:23;;;;;;;7.53;1.83;;;25.70;52.40;;;;;;5048882;28;20053;-71
2023/06/27 09:47:50;;;;;;;6.07;2.10;;;25.70;52.20;;;;;;5033373;28;20498;-79
2023/06/27 09:50:16;;;;;;;5.00;1.60;;;25.70;52.40;;;;;;5033464;28;20061;-71
2023/06/27 09:52:51;;;;;;;4.63;1.57;;;25.70;51.80;;;;;;5032604;28;20051;-76
2023/06/27 09:55:18;;;;;;;8.77;2.43;;;25.60;51.50;;;;;;5032230;28;20132;-76
2023/06/27 09:57:44;;;;;;;5.83;2.17;;;25.60;51.90;;;;;;5048756;28;20416;-74
2023/06/27 10:00:11;;;;;;;7.17;2.10;;;25.70;52.20;;;;;;5032802;28;20103;-75
2023/06/27 10:02:37;;;;;;;5.93;1.70;;;25.70;52.00;;;;;;5032286;28;20041;-74
2023/06/27 10:05:04;;;;;;;4.50;1.73;;;25.70;51.30;;;;;;5048567;28;20049;-74
2023/06/27 10:07:32;;;;;;;4.30;1.40;;;25.60;51.30;;;;;;5048574;28;20058;-74
2023/06/27 10:09:58;;;;;;;8.23;1.63;;;25.50;50.90;;;;;;5033003;28;20115;-75
2023/06/27 10:12:24;;;;;;;5.47;1.87;;;25.50;51.00;;;;;;5032991;28;20124;-74
2023/06/27 10:14:50;;;;;;;5.43;1.63;;;25.50;51.10;;;;;;5033041;28;20057;-76
2023/06/27 10:17:18;;;;;;;6.50;1.87;;;25.60;50.60;;;;;;5032659;28;20053;-73
2023/06/27 10:19:48;;;;;;;5.00;1.60;;;25.60;50.40;;;;;;5032065;28;20128;-73
2023/06/27 10:22:17;;;;;;;3.40;1.40;;;25.50;50.40;;;;;;5032734;28;20044;-73
2023/06/27 10:24:44;;;;;;;6.40;1.70;;;25.40;50.00;;;;;;5015594;28;20049;-76
2023/06/27 10:27:13;;;;;;;4.83;1.77;;;25.30;50.40;;;;;;5032626;28;20445;-76
2023/06/27 10:29:43;;;;;;;3.57;1.47;;;25.40;50.80;;;;;;5031855;28;20132;-76
2023/06/27 10:32:10;;;;;;;5.47;1.80;;;25.40;50.40;;;;;;5032649;28;20049;-75
2023/06/27 10:34:43;;;;;;;4.23;1.53;;;25.40;50.40;;;;;;5032839;28;20050;-76
2023/06/27 10:37:12;;;;;;;5.37;2.00;;;25.40;50.70;;;;;;5047609;28;20048;-77
2023/06/27 10:39:40;;;;;;;3.93;1.60;;;25.40;50.60;;;;;;5031553;28;20409;-78
2023/06/27 10:42:18;;;;;;;5.73;1.63;;;25.30;50.80;;;;;;5032225;28;20037;-83
2023/06/27 10:45:10;;;;;;;5.77;1.60;;;25.10;51.30;;;;;;5048070;28;20477;-81
2023/06/27 10:47:43;;;;;;;6.57;2.10;;;25.00;51.10;;;;;;5015155;28;20060;-80
2023/06/27 10:50:20;;;;;;;6.03;1.80;;;24.80;51.70;;;;;;5031012;28;20050;-83
2023/06/27 10:53:24;;;;;;;7.20;2.33;;;24.70;52.00;;;;;;5015270;28;20060;-82
2023/06/27 10:55:55;;;;;;;5.80;1.83;;;24.60;53.10;;;;;;5031555;28;20057;-82
2023/06/27 10:58:26;;;;;;;6.70;1.73;;;24.60;52.90;;;;;;5031121;28;20057;-83
2023/06/27 11:00:54;;;;;;;10.10;1.80;;;24.50;53.30;;;;;;5047657;28;20417;-82
2023/06/27 11:03:20;;;;;;;5.13;1.37;;;24.40;53.40;;;;;;5047647;28;20139;-78
2023/06/27 11:05:57;;;;;;;5.70;1.77;;;24.40;53.50;;;;;;5032584;28;20402;-78
2023/06/27 11:08:27;;;;;;;5.10;1.50;;;24.40;53.60;;;;;;5030936;28;20374;-67
2023/06/27 11:11:04;;;;;;;7.97;1.87;;;24.60;54.90;;;;;;5032397;28;20397;-77
2023/06/27 11:13:43;;;;;;;4.20;1.40;;;24.60;53.80;;;;;;5043649;28;20053;-80
2023/06/27 11:16:23;;;;;;;5.97;1.60;;;24.60;54.40;;;;;;5029193;28;20053;-76
2023/06/27 11:18:52;;;;;;;7.20;2.10;;;24.50;54.00;;;;;;5014726;28;20122;-75
2023/06/27 11:21:19;;;;;;;6.77;2.33;;;24.40;53.80;;;;;;5030629;28;20057;-76
2023/06/27 11:23:44;;;;;;;6.23;1.90;;;24.40;53.70;;;;;;5013599;28;20409;-74
2023/06/27 11:26:10;;;;;;;7.23;1.83;;;24.30;53.50;;;;;;5033292;28;20064;-75
2023/06/27 11:28:36;;;;;;;7.37;2.20;;;24.30;54.00;;;;;;5034129;28;20041;-75
2023/06/27 11:31:01;;;;;;;7.37;2.37;;;24.20;54.80;;;;;;5034612;28;20436;-74
2023/06/27 11:33:27;;;;;;;7.63;1.97;;;24.30;55.30;;;;;;5033953;28;20513;-73
2023/06/27 11:35:58;;;;;;;5.73;1.63;;;24.50;55.80;;;;;;5035723;28;20393;-75
2023/06/27 11:38:23;;;;;;;9.17;2.00;;;24.50;55.30;;;;;;5038052;28;20052;-75
2023/06/27 11:40:49;;;;;;;5.83;1.67;;;24.50;55.10;;;;;;5054153;28;20049;-74
2023/06/27 11:43:16;;;;;;;4.20;1.90;;;24.60;54.80;;;;;;5051543;28;20120;-75
2023/06/27 11:45:49;;;;;;;5.97;2.07;;;24.60;54.00;;;;;;5018268;28;20045;-74
2023/06/27 11:48:15;;;;;;;5.45;2.30;;;24.50;54.20;;;;;;5002798;28;20045;-76
2023/06/27 11:51:06;;;;;;;7.67;1.70;;;24.50;54.30;;;;;;5055217;28;20111;-76
2023/06/27 11:53:33;;;;;;;6.57;1.73;;;24.70;54.80;;;;;;5032072;28;20143;-76
2023/06/27 11:56:02;;;;;;;5.97;1.50;;;24.80;54.30;;;;;;5033160;28;20049;-78
2023/06/27 11:58:47;;;;;;;4.50;2.00;;;24.80;53.40;;;;;;5034169;28;20045;-76
2023/06/27 12:01:15;;;;;;;5.67;1.70;;;24.80;52.70;;;;;;5017034;28;20186;-74
2023/06/27 12:03:48;;;;;;;6.23;2.23;;;25.00;53.20;;;;;;5017440;28;20049;-75
2023/06/27 12:06:28;;;;;;;5.17;1.87;;;25.10;53.30;;;;;;5015547;28;20075;-77
2023/06/27 12:08:54;;;;;;;6.90;1.70;;;25.20;52.40;;;;;;5041253;28;20372;-75
2023/06/27 12:11:35;;;;;;;6.57;1.70;;;25.20;51.90;;;;;;5036656;28;20442;-75
2023/06/27 12:14:04;;;;;;;4.50;1.50;;;25.10;50.40;;;;;;5047045;28;20474;-74
2023/06/27 12:16:33;;;;;;;5.73;1.50;;;25.00;50.20;;;;;;5015847;28;20049;-75
2023/06/27 12:19:08;;;;;;;4.67;1.67;;;25.00;49.80;;;;;;5034105;28;20041;-74
2023/06/27 12:21:35;;;;;;;3.90;1.60;;;24.90;48.90;;;;;;5033585;28;20052;-74
2023/06/27 12:24:01;;;;;;;3.50;1.47;;;24.90;49.20;;;;;;5033402;28;20068;-76
2023/06/27 12:26:27;;;;;;;6.57;1.97;;;24.80;48.80;;;;;;5032722;28;20089;-75
2023/06/27 12:29:00;;;;;;;4.87;1.70;;;24.80;49.50;;;;;;5033746;28;20102;-75
2023/06/27 12:31:26;;;;;;;7.25;1.95;;;24.70;50.40;;;;;;5033519;28;20046;-76
2023/06/27 12:33:53;;;;;;;4.70;1.70;;;24.70;50.60;;;;;;5016506;28;20135;-75
2023/06/27 12:36:21;;;;;;;6.17;1.67;;;24.70;50.60;;;;;;5030963;28;20118;-75
2023/06/27 12:38:47;;;;;;;7.90;1.70;;;24.70;50.40;;;;;;5021849;28;20070;-76
2023/06/27 12:41:13;;;;;;;4.60;1.70;;;24.70;50.60;;;;;;5036466;28;20045;-74
2023/06/27 12:43:39;;;;;;;6.50;1.80;;;24.70;51.00;;;;;;5050870;28;20040;-77
2023/06/27 12:46:05;;;;;;;6.23;1.77;;;24.70;51.60;;;;;;5034239;28;20115;-80
2023/06/27 12:48:30;;;;;;;5.90;1.90;;;24.70;52.00;;;;;;4999958;28;20132;-78